Time;durP1;ratioP1;P1;durP2;ratioP2;P2;SDS_P1;SDS_P2;PMS_P1;PMS_P2;Temp;Humidity;BMP_temperature;BMP_pressure;BME280_temperature;BME280_humidity;BME280_pressure;Samples;Min_cycle;Max_cycle;Signal;HPM_P1;HPM_P2
2021/12/02 00:04:59;;;;;;;0.60;0.50;;;;;;;;;;10441245;28;20063;-72
2021/12/02 00:10:03;;;;;;;;;;;;;;;;;;10446660;28;20118;-72
2021/12/02 00:15:12;;;;;;;0.63;0.40;;;;;;;;;;10444760;28;19943;-70
2021/12/02 00:25:32;;;;;;;0.43;0.43;;;;;;;;;;10411125;28;20321;-72
2021/12/02 00:30:35;;;;;;;0.68;0.65;;;;;;;;;;10443297;28;20501;-71
2021/12/02 00:35:40;;;;;;;1.17;0.75;;;;;;;;;;10445484;28;20045;-71
2021/12/02 00:40:43;;;;;;;1.08;0.63;;;;;;;;;;10445798;28;20037;-70
2021/12/02 00:45:47;;;;;;;0.93;0.75;;;;;;;;;;10440942;28;20416;-71
2021/12/02 00:50:51;;;;;;;0.57;0.57;;;;;;;;;;10443218;28;20064;-71
2021/12/02 00:55:54;;;;;;;0.70;0.50;;;;;;;;;;10443972;28;20047;-70
2021/12/02 01:00:57;;;;;;;0.57;0.57;;;;;;;;;;10441729;28;20040;-72
2021/12/02 01:06:03;;;;;;;0.50;0.50;;;;;;;;;;10441617;28;20075;-72
2021/12/02 01:11:06;;;;;;;0.40;0.40;;;;;;;;;;10443385;28;20041;-72
2021/12/02 01:16:09;;;;;;;0.33;0.33;;;;;;;;;;10442802;28;20037;-71
2021/12/02 01:21:15;;;;;;;0.55;0.40;;;;;;;;;;10443070;28;20036;-70
2021/12/02 01:26:19;;;;;;;0.52;0.40;;;;;;;;;;10443188;28;20497;-71
2021/12/02 01:31:23;;;;;;;0.50;0.30;;;;;;;;;;10441403;28;20051;-72
2021/12/02 01:36:32;;;;;;;0.50;0.50;;;;;;;;;;10441489;28;20048;-71
2021/12/02 01:41:38;;;;;;;1.00;0.68;;;;;;;;;;10440319;28;20090;-71
2021/12/02 01:46:41;;;;;;;0.80;0.50;;;;;;;;;;10440336;28;20040;-70
2021/12/02 01:51:47;;;;;;;1.02;0.43;;;;;;;;;;10425503;28;20047;-71
2021/12/02 01:56:51;;;;;;;0.70;0.32;;;;;;;;;;10440279;28;20396;-71
2021/12/02 02:01:56;;;;;;;0.30;0.22;;;;;;;;;;10434325;28;20119;-71
2021/12/02 02:07:01;;;;;;;0.85;0.50;;;;;;;;;;10444771;28;20047;-73
2021/12/02 02:12:07;;;;;;;0.38;0.28;;;;;;;;;;10437550;28;20641;-71
2021/12/02 02:17:34;;;;;;;1.08;0.55;;;;;;;;;;10435960;28;20037;-72
2021/12/02 02:22:47;;;;;;;0.65;0.47;;;;;;;;;;10436346;28;20519;-70
2021/12/02 02:28:10;;;;;;;1.17;0.50;;;;;;;;;;10440540;28;20047;-70
2021/12/02 02:33:14;;;;;;;0.43;0.40;;;;;;;;;;10434157;28;20049;-70
2021/12/02 02:38:38;;;;;;;0.63;0.40;;;;;;;;;;10438544;28;20533;-71
2021/12/02 02:43:47;;;;;;;0.32;0.32;;;;;;;;;;10440982;28;20590;-72
2021/12/02 02:48:50;;;;;;;0.63;0.63;;;;;;;;;;10436222;28;20115;-70
2021/12/02 02:53:56;;;;;;;0.93;0.55;;;;;;;;;;10435142;28;20079;-70
2021/12/02 02:59:06;;;;;;;3.70;0.65;;;;;;;;;;10440011;28;20095;-69
2021/12/02 03:04:19;;;;;;;1.15;1.02;;;;;;;;;;10437342;28;20128;-71
2021/12/02 03:09:40;;;;;;;0.60;0.43;;;;;;;;;;10437421;28;20481;-72
2021/12/02 03:14:54;;;;;;;0.30;0.30;;;;;;;;;;10432927;28;20653;-71
2021/12/02 03:19:57;;;;;;;2.60;0.90;;;;;;;;;;10434294;28;20037;-71
2021/12/02 03:25:01;;;;;;;1.02;0.13;;;;;;;;;;10440521;28;20560;-72
2021/12/02 03:30:06;;;;;;;0.47;0.30;;;;;;;;;;10448423;28;20063;-70
2021/12/02 03:35:09;;;;;;;0.10;0.10;;;;;;;;;;10443783;28;20071;-69
2021/12/02 03:40:13;;;;;;;0.32;0.10;;;;;;;;;;10444903;28;20049;-72
2021/12/02 03:45:16;;;;;;;0.10;0.10;;;;;;;;;;10446256;28;20041;-70
2021/12/02 03:50:19;;;;;;;1.40;0.30;;;;;;;;;;10444523;28;20041;-72
2021/12/02 03:55:24;;;;;;;0.10;0.10;;;;;;;;;;10445298;28;20074;-71
2021/12/02 04:00:27;;;;;;;0.10;0.10;;;;;;;;;;10443839;28;20519;-72
2021/12/02 04:05:30;;;;;;;0.17;0.17;;;;;;;;;;10449003;28;20040;-71
2021/12/02 04:10:34;;;;;;;0.30;0.20;;;;;;;;;;10449267;28;20044;-72
2021/12/02 04:15:39;;;;;;;0.00;0.00;;;;;;;;;;10445999;28;20075;-71
2021/12/02 04:20:42;;;;;;;0.22;0.20;;;;;;;;;;10440033;28;20477;-71
2021/12/02 04:25:47;;;;;;;0.30;0.30;;;;;;;;;;10442400;28;20091;-70
2021/12/02 04:30:49;;;;;;;0.68;0.05;;;;;;;;;;10443525;28;20061;-72
2021/12/02 04:35:52;;;;;;;0.40;0.40;;;;;;;;;;10446125;28;20527;-70
2021/12/02 04:40:57;;;;;;;0.40;0.17;;;;;;;;;;10445501;28;20061;-69
2021/12/02 04:46:00;;;;;;;0.20;0.20;;;;;;;;;;10444309;28;20110;-71
2021/12/02 04:51:03;;;;;;;0.83;0.30;;;;;;;;;;10446000;28;20144;-69
2021/12/02 04:56:07;;;;;;;0.60;0.40;;;;;;;;;;10444903;28;20457;-70
2021/12/02 05:01:10;;;;;;;0.03;0.03;;;;;;;;;;10440992;28;20041;-70
2021/12/02 05:06:13;;;;;;;0.93;0.57;;;;;;;;;;10440645;28;20052;-72
2021/12/02 05:11:17;;;;;;;0.15;0.15;;;;;;;;;;10438521;28;20059;-71
2021/12/02 05:16:19;;;;;;;;;;;;;;;;;;10444135;28;20169;-72
2021/12/02 05:21:22;;;;;;;0.73;0.52;;;;;;;;;;10438701;28;19951;-72
2021/12/02 05:26:27;;;;;;;0.30;0.30;;;;;;;;;;10436555;28;20045;-72
2021/12/02 05:31:30;;;;;;;0.90;0.52;;;;;;;;;;10432529;28;20212;-71
2021/12/02 05:36:33;;;;;;;1.58;0.55;;;;;;;;;;10442099;28;20048;-71
2021/12/02 05:41:37;;;;;;;1.45;0.70;;;;;;;;;;10442356;28;20071;-72
2021/12/02 05:46:39;;;;;;;;;;;;;;;;;;10443060;28;20041;-71
2021/12/02 05:51:43;;;;;;;1.33;0.60;;;;;;;;;;10435225;28;19925;-69
2021/12/02 05:56:47;;;;;;;1.67;0.95;;;;;;;;;;10441793;28;20384;-72
2021/12/02 06:01:50;;;;;;;0.70;0.57;;;;;;;;;;10438396;28;20036;-71
2021/12/02 06:06:53;;;;;;;1.13;0.73;;;;;;;;;;10440142;28;20044;-72
2021/12/02 06:11:57;;;;;;;2.40;1.30;;;;;;;;;;10435992;28;20140;-72
2021/12/02 06:16:59;;;;;;;0.45;0.38;;;;;;;;;;10451361;28;20052;-72
2021/12/02 06:22:02;;;;;;;0.60;0.60;;;;;;;;;;10439638;28;20144;-70
2021/12/02 06:27:07;;;;;;;2.10;1.13;;;;;;;;;;10444737;28;20044;-72
2021/12/02 06:32:09;;;;;;;;;;;;;;;;;;10442330;28;20065;-72
2021/12/02 06:37:12;;;;;;;0.95;0.52;;;;;;;;;;10442522;28;20391;-69
2021/12/02 06:42:16;;;;;;;1.97;0.77;;;;;;;;;;10438017;28;20039;-72
2021/12/02 06:47:20;;;;;;;;;;;;;;;;;;10438383;28;20090;-71
2021/12/02 06:52:23;;;;;;;0.30;0.30;;;;;;;;;;10439078;28;19936;-70
2021/12/02 06:57:28;;;;;;;0.45;0.32;;;;;;;;;;10437567;28;20065;-71
2021/12/02 07:02:31;;;;;;;;;;;;;;;;;;10443374;28;20041;-71
2021/12/02 07:07:36;;;;;;;0.57;0.35;;;;;;;;;;10441614;28;20411;-70
2021/12/02 07:12:42;;;;;;;0.65;0.65;;;;;;;;;;10447739;28;20060;-72
2021/12/02 07:17:46;;;;;;;0.93;0.30;;;;;;;;;;10440438;28;20406;-73
2021/12/02 07:22:49;;;;;;;0.45;0.35;;;;;;;;;;10442368;28;20033;-72
2021/12/02 07:27:53;;;;;;;0.30;0.30;;;;;;;;;;10446852;28;20396;-70
2021/12/02 07:32:56;;;;;;;;;;;;;;;;;;10444300;28;20041;-71
2021/12/02 07:37:59;;;;;;;1.30;0.87;;;;;;;;;;10451449;28;19978;-71
2021/12/02 07:43:04;;;;;;;0.90;0.28;;;;;;;;;;10427862;28;20037;-69
2021/12/02 07:48:09;;;;;;;1.60;0.75;;;;;;;;;;10445809;28;20052;-72
2021/12/02 07:53:12;;;;;;;1.35;0.90;;;;;;;;;;10441336;28;21538;-71
2021/12/02 07:58:17;;;;;;;1.17;0.70;;;;;;;;;;10445343;28;20041;-70
2021/12/02 08:03:20;;;;;;;1.60;0.95;;;;;;;;;;10431618;28;20108;-71
2021/12/02 08:08:24;;;;;;;1.13;0.80;;;;;;;;;;10444639;28;20392;-70
2021/12/02 08:13:30;;;;;;;2.47;0.90;;;;;;;;;;10443000;28;20098;-69
2021/12/02 08:18:33;;;;;;;1.85;0.90;;;;;;;;;;10442642;28;20401;-71
2021/12/02 08:23:37;;;;;;;0.73;0.50;;;;;;;;;;10436811;28;20033;-70
2021/12/02 08:28:42;;;;;;;1.75;0.55;;;;;;;;;;10445165;28;20037;-69
2021/12/02 08:33:57;;;;;;;3.40;0.70;;;;;;;;;;10441491;28;20029;-71
2021/12/02 08:39:04;;;;;;;0.75;0.50;;;;;;;;;;10450332;28;20083;-70
2021/12/02 08:44:12;;;;;;;1.42;0.60;;;;;;;;;;10439916;28;20136;-69
2021/12/02 08:49:15;;;;;;;2.42;0.90;;;;;;;;;;10444589;28;20507;-71
2021/12/02 08:54:18;;;;;;;1.40;0.70;;;;;;;;;;10437122;28;20117;-71
2021/12/02 08:59:22;;;;;;;7.78;0.88;;;;;;;;;;10441968;28;20056;-70
2021/12/02 09:04:24;;;;;;;;;;;;;;;;;;10443248;28;20128;-70
2021/12/02 09:09:27;;;;;;;2.40;0.50;;;;;;;;;;10438832;28;19960;-71
2021/12/02 09:14:32;;;;;;;1.23;0.60;;;;;;;;;;10444169;28;20140;-71
2021/12/02 09:19:34;;;;;;;;;;;;;;;;;;10436850;28;20048;-70
2021/12/02 09:24:39;;;;;;;0.82;0.82;;;;;;;;;;10439301;28;19928;-70
2021/12/02 09:29:43;;;;;;;0.80;0.70;;;;;;;;;;10436308;28;20052;-69
2021/12/02 09:34:47;;;;;;;1.08;0.68;;;;;;;;;;10438495;28;20138;-70
2021/12/02 09:39:50;;;;;;;1.40;0.68;;;;;;;;;;10442566;28;20431;-72
2021/12/02 09:44:58;;;;;;;1.17;0.60;;;;;;;;;;10443275;28;20039;-71
2021/12/02 09:50:05;;;;;;;4.70;0.55;;;;;;;;;;10432875;28;20753;-71
2021/12/02 09:55:16;;;;;;;2.95;0.82;;;;;;;;;;10440878;28;20045;-71
2021/12/02 10:00:23;;;;;;;1.80;0.70;;;;;;;;;;10439880;28;20040;-71
2021/12/02 10:05:30;;;;;;;0.32;0.32;;;;;;;;;;10434060;28;20048;-68
2021/12/02 10:10:36;;;;;;;1.75;0.85;;;;;;;;;;10437078;28;20466;-70
2021/12/02 10:15:50;;;;;;;1.55;0.45;;;;;;;;;;10438542;28;20118;-71
2021/12/02 10:20:52;;;;;;;0.13;0.13;;;;;;;;;;10436646;28;20107;-69
2021/12/02 10:25:58;;;;;;;1.23;0.63;;;;;;;;;;10439238;28;20053;-68
2021/12/02 10:31:03;;;;;;;0.60;0.60;;;;;;;;;;10435541;28;20124;-70
2021/12/02 10:36:08;;;;;;;0.20;0.20;;;;;;;;;;10434800;28;20120;-72
2021/12/02 10:41:12;;;;;;;3.50;0.40;;;;;;;;;;10435680;28;20040;-71
2021/12/02 10:46:15;;;;;;;;;;;;;;;;;;10440591;28;20041;-71
2021/12/02 10:51:39;;;;;;;0.45;0.35;;;;;;;;;;10436979;28;19921;-69
2021/12/02 10:56:42;;;;;;;1.17;0.50;;;;;;;;;;10442156;28;20049;-71
2021/12/02 11:01:45;;;;;;;0.77;0.40;;;;;;;;;;10436393;28;20124;-71
2021/12/02 11:06:50;;;;;;;0.57;0.35;;;;;;;;;;10454870;28;20112;-68
2021/12/02 11:12:23;;;;;;;0.73;0.40;;;;;;;;;;10444667;28;20037;-70
2021/12/02 11:17:29;;;;;;;0.10;0.10;;;;;;;;;;10332155;28;20076;-69
2021/12/02 11:22:33;;;;;;;2.40;0.55;;;;;;;;;;10433055;28;20053;-71
2021/12/02 11:27:38;;;;;;;2.53;0.50;;;;;;;;;;10440498;28;20049;-70
2021/12/02 11:32:42;;;;;;;2.08;0.77;;;;;;;;;;10435571;28;20099;-72
2021/12/02 11:37:47;;;;;;;0.35;0.30;;;;;;;;;;10436731;28;20036;-70
2021/12/02 11:42:51;;;;;;;1.42;0.17;;;;;;;;;;10441828;28;20116;-69
2021/12/02 11:47:54;;;;;;;0.60;0.38;;;;;;;;;;10435117;28;20398;-70
2021/12/02 11:52:58;;;;;;;0.10;0.10;;;;;;;;;;10442599;28;20033;-70
2021/12/02 11:58:01;;;;;;;2.45;0.35;;;;;;;;;;10431398;28;20049;-70
2021/12/02 12:03:07;;;;;;;0.63;0.40;;;;;;;;;;10442814;28;20128;-74
2021/12/02 12:08:29;;;;;;;0.32;0.32;;;;;;;;;;10462192;28;20072;-71
2021/12/02 12:13:31;;;;;;;2.75;0.65;;;;;;;;;;10442701;28;20044;-72
2021/12/02 12:18:37;;;;;;;1.55;0.73;;;;;;;;;;10447611;28;20064;-70
2021/12/02 12:23:59;;;;;;;1.55;1.00;;;;;;;;;;10439245;28;20048;-70
2021/12/02 12:29:26;;;;;;;1.23;0.75;;;;;;;;;;10443780;28;20057;-70
2021/12/02 12:34:47;;;;;;;1.40;1.40;;;;;;;;;;10437862;28;20036;-71
2021/12/02 12:40:05;;;;;;;1.08;1.00;;;;;;;;;;10440916;28;20083;-71
2021/12/02 12:45:08;;;;;;;0.45;0.40;;;;;;;;;;10437849;28;20041;-70
2021/12/02 12:50:25;;;;;;;1.30;1.03;;;;;;;;;;10439999;28;20045;-71
2021/12/02 12:55:30;;;;;;;1.67;0.50;;;;;;;;;;10442033;28;20409;-72
2021/12/02 13:00:37;;;;;;;1.23;0.68;;;;;;;;;;10437010;28;20043;-70
2021/12/02 13:05:42;;;;;;;0.40;0.40;;;;;;;;;;10439032;28;20471;-71
2021/12/02 13:10:45;;;;;;;;;;;;;;;;;;10441113;28;20042;-68
2021/12/02 13:15:49;;;;;;;1.30;0.60;;;;;;;;;;10442101;28;19947;-72
2021/12/02 13:20:52;;;;;;;0.20;0.20;;;;;;;;;;10429550;28;20148;-68
2021/12/02 13:25:56;;;;;;;0.40;0.30;;;;;;;;;;10441801;28;20105;-71
2021/12/02 13:31:01;;;;;;;1.35;0.43;;;;;;;;;;10439304;28;20090;-71
2021/12/02 13:36:05;;;;;;;1.08;0.43;;;;;;;;;;10444757;28;20140;-72
2021/12/02 13:41:15;;;;;;;0.67;0.40;;;;;;;;;;10442448;28;20044;-72
2021/12/02 13:46:27;;;;;;;1.17;0.30;;;;;;;;;;10435947;28;20041;-70
2021/12/02 13:56:56;;;;;;;0.65;0.30;;;;;;;;;;10426952;28;20049;-70
2021/12/02 14:02:01;;;;;;;0.68;0.43;;;;;;;;;;10435952;28;21776;-69
2021/12/02 14:07:14;;;;;;;0.95;0.52;;;;;;;;;;10437517;28;20052;-70
2021/12/02 14:12:20;;;;;;;0.20;0.20;;;;;;;;;;10437320;28;20112;-69
2021/12/02 14:17:25;;;;;;;1.50;0.60;;;;;;;;;;10439223;28;20551;-69
2021/12/02 14:22:28;;;;;;;1.08;0.30;;;;;;;;;;10434895;28;20144;-71
2021/12/02 14:27:30;;;;;;;1.20;0.40;;;;;;;;;;10439824;28;20442;-72
2021/12/02 14:32:35;;;;;;;2.15;0.70;;;;;;;;;;10440406;28;20530;-71
2021/12/02 14:37:38;;;;;;;1.25;0.38;;;;;;;;;;10437844;28;20068;-71
2021/12/02 14:42:41;;;;;;;1.88;0.80;;;;;;;;;;10435118;28;20485;-72
2021/12/02 14:47:49;;;;;;;0.30;0.30;;;;;;;;;;10439938;28;20675;-70
2021/12/02 14:52:54;;;;;;;0.10;0.10;;;;;;;;;;10435760;28;20057;-69
2021/12/02 14:57:57;;;;;;;0.20;0.20;;;;;;;;;;10431904;28;20151;-72
2021/12/02 15:03:02;;;;;;;0.22;0.20;;;;;;;;;;10433539;28;20081;-70
2021/12/02 15:08:07;;;;;;;0.30;0.30;;;;;;;;;;10435520;28;20059;-72
2021/12/02 15:13:12;;;;;;;1.17;0.40;;;;;;;;;;10430209;28;20436;-69
2021/12/02 15:18:19;;;;;;;0.45;0.32;;;;;;;;;;10434460;28;20403;-71
2021/12/02 15:23:25;;;;;;;0.60;0.60;;;;;;;;;;10437443;28;20072;-70
2021/12/02 15:28:28;;;;;;;0.60;0.20;;;;;;;;;;10447576;28;20587;-69
2021/12/02 15:33:33;;;;;;;0.43;0.33;;;;;;;;;;10445935;28;20061;-72
2021/12/02 15:38:37;;;;;;;0.20;0.20;;;;;;;;;;10444099;28;20041;-70
2021/12/02 15:43:47;;;;;;;1.25;0.40;;;;;;;;;;10443712;28;20048;-69
2021/12/02 15:48:52;;;;;;;1.13;0.60;;;;;;;;;;10437342;28;20037;-70
2021/12/02 15:53:55;;;;;;;0.43;0.23;;;;;;;;;;10442514;28;20056;-71
2021/12/02 15:58:58;;;;;;;0.87;0.80;;;;;;;;;;10441265;28;20033;-72
2021/12/02 16:04:05;;;;;;;1.80;1.10;;;;;;;;;;10438286;28;20044;-70
2021/12/02 16:09:11;;;;;;;1.30;0.67;;;;;;;;;;10443522;28;20443;-70
2021/12/02 16:14:15;;;;;;;1.27;0.97;;;;;;;;;;10436540;28;20045;-71
2021/12/02 16:19:19;;;;;;;1.30;0.90;;;;;;;;;;10438793;28;20068;-71
2021/12/02 16:24:22;;;;;;;;;;;;;;;;;;10440150;28;20122;-70
2021/12/02 16:29:24;;;;;;;2.60;1.23;;;;;;;;;;10447697;28;19937;-69
2021/12/02 16:34:28;;;;;;;0.83;0.50;;;;;;;;;;10436409;28;20102;-70
2021/12/02 16:39:31;;;;;;;;;;;;;;;;;;10429649;28;20044;-70
2021/12/02 16:44:34;;;;;;;0.57;0.53;;;;;;;;;;10431058;28;19931;-70
2021/12/02 16:49:38;;;;;;;1.73;0.90;;;;;;;;;;10432435;28;20194;-71
2021/12/02 16:54:41;;;;;;;;;;;;;;;;;;10438761;28;20044;-71
2021/12/02 16:59:45;;;;;;;3.07;1.07;;;;;;;;;;10441074;28;20769;-71
2021/12/02 17:04:50;;;;;;;2.63;1.40;;;;;;;;;;10441269;28;20094;-71
2021/12/02 17:10:14;;;;;;;4.03;1.73;;;;;;;;;;10442736;28;20052;-71
2021/12/02 17:15:37;;;;;;;3.73;1.47;;;;;;;;;;10439864;28;20068;-70
2021/12/02 17:20:42;;;;;;;1.07;0.97;;;;;;;;;;10428431;28;22185;-71
2021/12/02 17:25:45;;;;;;;2.13;1.20;;;;;;;;;;10436991;28;20663;-70
2021/12/02 17:30:48;;;;;;;1.33;1.07;;;;;;;;;;10439738;28;20156;-70
2021/12/02 17:35:52;;;;;;;0.73;0.67;;;;;;;;;;10445092;28;20043;-70
2021/12/02 17:40:55;;;;;;;;;;;;;;;;;;10437564;28;20121;-69
2021/12/02 17:45:59;;;;;;;3.67;0.83;;;;;;;;;;10440261;28;19974;-70
2021/12/02 17:51:03;;;;;;;2.40;1.20;;;;;;;;;;10436255;28;20767;-70
2021/12/02 17:56:05;;;;;;;;;;;;;;;;;;10439814;28;20044;-71
2021/12/02 18:01:08;;;;;;;1.30;0.80;;;;;;;;;;10446572;28;19942;-70
2021/12/02 18:06:12;;;;;;;4.63;1.83;;;;;;;;;;10460625;28;20136;-70
2021/12/02 18:11:15;;;;;;;;;;;;;;;;;;10453810;28;20093;-70
2021/12/02 18:16:18;;;;;;;2.83;1.20;;;;;;;;;;10453126;28;20027;-69
2021/12/02 18:21:23;;;;;;;1.58;1.48;;;;;;;;;;10443712;28;20049;-70
2021/12/02 18:26:27;;;;;;;8.20;2.40;;;;;;;;;;10439940;28;20405;-70
2021/12/02 18:31:29;;;;;;;2.27;0.93;;;;;;;;;;10438551;28;20203;-70
2021/12/02 18:36:35;;;;;;;5.43;2.13;;;;;;;;;;10439213;28;20049;-70
2021/12/02 18:41:37;;;;;;;9.13;3.27;;;;;;;;;;10440391;28;20147;-71
2021/12/02 18:46:40;;;;;;;4.30;2.20;;;;;;;;;;10435931;28;20049;-71
2021/12/02 18:51:44;;;;;;;9.03;3.30;;;;;;;;;;10422409;28;20708;-70
2021/12/02 18:56:47;;;;;;;;;;;;;;;;;;10430637;28;20091;-71
2021/12/02 19:01:50;;;;;;;4.90;2.33;;;;;;;;;;10437499;28;19921;-71
2021/12/02 19:07:00;;;;;;;4.00;1.63;;;;;;;;;;10430484;28;20047;-70
2021/12/02 19:23:00;;;;;;;8.47;3.57;;;;;;;;;;10441740;28;20056;-71
2021/12/02 19:28:03;;;;;;;8.07;3.30;;;;;;;;;;10439161;28;20033;-72
2021/12/02 19:33:05;;;;;;;5.40;1.63;;;;;;;;;;10449447;28;20098;-72
2021/12/02 19:38:10;;;;;;;5.37;3.03;;;;;;;;;;10443681;28;20565;-70
2021/12/02 19:43:13;;;;;;;5.90;2.30;;;;;;;;;;10444521;28;20615;-71
2021/12/02 19:48:15;;;;;;;4.20;2.07;;;;;;;;;;10442849;28;20044;-68
2021/12/02 19:53:19;;;;;;;10.83;3.33;;;;;;;;;;10445593;28;20635;-69
2021/12/02 19:58:23;;;;;;;7.60;3.63;;;;;;;;;;10434130;28;20040;-71
2021/12/02 20:03:26;;;;;;;5.73;1.90;;;;;;;;;;10438697;28;20076;-72
2021/12/02 20:08:32;;;;;;;3.23;1.63;;;;;;;;;;10443586;28;20033;-71
2021/12/02 20:13:34;;;;;;;;;;;;;;;;;;10444948;28;20120;-71
2021/12/02 20:18:41;;;;;;;1.03;0.77;;;;;;;;;;10440906;28;20007;-69
2021/12/02 20:23:45;;;;;;;3.07;1.50;;;;;;;;;;10441504;28;20083;-71
2021/12/02 20:28:48;;;;;;;2.43;1.57;;;;;;;;;;10450306;28;20093;-72
2021/12/02 20:33:54;;;;;;;1.47;0.90;;;;;;;;;;10439672;28;20485;-73
2021/12/02 20:38:59;;;;;;;2.67;1.77;;;;;;;;;;10444812;28;20052;-72
2021/12/02 20:44:04;;;;;;;2.67;1.40;;;;;;;;;;10445118;28;20496;-72
2021/12/02 20:49:12;;;;;;;4.13;2.00;;;;;;;;;;10443780;28;20136;-71
2021/12/02 20:54:18;;;;;;;3.53;1.53;;;;;;;;;;10442491;28;20032;-73
2021/12/02 20:59:20;;;;;;;6.80;2.13;;;;;;;;;;10442545;28;20056;-74
2021/12/02 21:04:23;;;;;;;10.60;4.23;;;;;;;;;;10442547;28;20658;-72
2021/12/02 21:09:27;;;;;;;8.80;3.80;;;;;;;;;;10439789;28;20405;-72
2021/12/02 21:14:30;;;;;;;;;;;;;;;;;;10439552;28;20087;-70
2021/12/02 21:19:34;;;;;;;2.20;1.33;;;;;;;;;;10451848;28;19964;-71
2021/12/02 21:24:38;;;;;;;7.10;3.20;;;;;;;;;;10438175;28;20040;-69
2021/12/02 21:29:41;;;;;;;2.27;1.70;;;;;;;;;;10443227;28;20094;-72
2021/12/02 21:34:48;;;;;;;8.43;3.60;;;;;;;;;;10426768;28;20134;-70
2021/12/02 21:39:53;;;;;;;2.60;1.17;;;;;;;;;;10423491;28;20123;-69
2021/12/02 21:44:56;;;;;;;6.70;2.87;;;;;;;;;;10439461;28;20041;-72
2021/12/02 21:49:59;;;;;;;9.83;3.97;;;;;;;;;;10432316;28;20045;-71
2021/12/02 21:55:04;;;;;;;0.73;0.63;;;;;;;;;;10436510;28;20674;-71
2021/12/02 22:00:10;;;;;;;8.87;2.20;;;;;;;;;;10436690;28;20140;-72
2021/12/02 22:05:13;;;;;;;5.43;2.67;;;;;;;;;;10432346;28;20037;-71
2021/12/02 22:10:17;;;;;;;5.10;2.20;;;;;;;;;;10439783;28;20403;-71
2021/12/02 22:15:20;;;;;;;1.33;1.17;;;;;;;;;;10441044;28;20109;-69
2021/12/02 22:20:23;;;;;;;8.47;2.50;;;;;;;;;;10441523;28;20041;-70
2021/12/02 22:25:29;;;;;;;5.33;1.87;;;;;;;;;;10437317;28;20361;-70
2021/12/02 22:30:31;;;;;;;;;;;;;;;;;;10439725;28;20049;-71
2021/12/02 22:35:34;;;;;;;6.53;2.17;;;;;;;;;;10441034;28;19964;-70
2021/12/02 22:40:39;;;;;;;2.83;1.73;;;;;;;;;;10436437;28;20059;-72
2021/12/02 22:45:42;;;;;;;6.00;2.13;;;;;;;;;;10466823;28;20045;-70
2021/12/02 22:50:47;;;;;;;4.97;2.23;;;;;;;;;;10443708;28;20094;-71
2021/12/02 22:55:52;;;;;;;4.67;2.63;;;;;;;;;;10434028;28;20428;-71
2021/12/02 23:01:02;;;;;;;3.13;1.20;;;;;;;;;;10440482;28;20505;-72
2021/12/02 23:06:05;;;;;;;6.03;2.77;;;;;;;;;;10434913;28;20040;-71
2021/12/02 23:11:10;;;;;;;4.17;1.83;;;;;;;;;;10440444;28;20049;-73
2021/12/02 23:16:12;;;;;;;;;;;;;;;;;;10441520;28;20056;-71
2021/12/02 23:21:15;;;;;;;3.37;2.33;;;;;;;;;;10428655;28;20463;-71
2021/12/02 23:26:19;;;;;;;4.77;1.70;;;;;;;;;;10437759;28;20060;-73
2021/12/02 23:31:22;;;;;;;;;;;;;;;;;;10430912;28;20041;-71
2021/12/02 23:36:26;;;;;;;4.10;1.73;;;;;;;;;;10439971;28;20007;-72
2021/12/02 23:41:31;;;;;;;2.17;1.00;;;;;;;;;;10434726;28;20040;-72
2021/12/02 23:46:33;;;;;;;;;;;;;;;;;;10447432;28;20523;-71
2021/12/02 23:51:36;;;;;;;6.90;1.93;;;;;;;;;;10437563;28;20016;-69
2021/12/02 23:56:40;;;;;;;6.70;2.13;;;;;;;;;;10445887;28;20497;-71
